Time;durP1;ratioP1;P1;durP2;ratioP2;P2;SDS_P1;SDS_P2;PMS_P1;PMS_P2;Temp;Humidity;BMP_temperature;BMP_pressure;BME280_temperature;BME280_humidity;BME280_pressure;Samples;Min_cycle;Max_cycle;Signal;HPM_P1;HPM_P2
2022/06/08 00:01:16;;;;;;;2.77;2.57;;;14.00;99.90;;;;;;5029215;28;20474;-68
2022/06/08 00:03:47;;;;;;;2.30;2.10;;;14.00;99.90;;;;;;5028862;28;20488;-67
2022/06/08 00:06:15;;;;;;;2.23;2.10;;;14.00;99.90;;;;;;5028699;28;20464;-69
2022/06/08 00:08:42;;;;;;;3.00;2.10;;;13.90;99.90;;;;;;5028446;28;20696;-68
2022/06/08 00:11:09;;;;;;;5.60;2.20;;;13.90;99.90;;;;;;5029024;28;20464;-67
2022/06/08 00:13:37;;;;;;;2.97;1.90;;;13.90;99.90;;;;;;5028822;28;21105;-68
2022/06/08 00:16:04;;;;;;;2.33;1.90;;;13.90;99.90;;;;;;5028595;28;20464;-67
2022/06/08 00:18:32;;;;;;;3.20;2.00;;;13.90;99.90;;;;;;5027765;28;20464;-67
2022/06/08 00:20:59;;;;;;;4.73;2.37;;;13.90;99.90;;;;;;5028812;28;20886;-68
2022/06/08 00:23:26;;;;;;;2.03;1.80;;;13.90;99.90;;;;;;5028410;28;21339;-68
2022/06/08 00:25:52;;;;;;;1.90;1.80;;;13.80;99.90;;;;;;5028822;28;20468;-68
2022/06/08 00:28:19;;;;;;;2.57;2.30;;;13.80;99.90;;;;;;5027963;28;20767;-68
2022/06/08 00:30:46;;;;;;;2.10;1.90;;;13.80;99.90;;;;;;5056893;22;20494;-72
2022/06/08 00:33:13;;;;;;;2.20;2.00;;;13.80;99.90;;;;;;5067409;28;20470;-72
2022/06/08 00:35:41;;;;;;;2.47;2.27;;;13.80;99.90;;;;;;5072046;28;20917;-72
2022/06/08 00:38:08;;;;;;;2.90;2.70;;;13.80;99.90;;;;;;5071244;28;20458;-71
2022/06/08 00:40:43;;;;;;;2.30;2.10;;;13.80;99.90;;;;;;5072363;28;20691;-72
2022/06/08 00:43:10;;;;;;;3.23;2.40;;;13.80;99.90;;;;;;5072179;28;20848;-72
2022/06/08 00:45:38;;;;;;;2.87;2.50;;;13.70;99.90;;;;;;5072228;28;20462;-72
2022/06/08 00:48:07;;;;;;;2.40;2.20;;;13.70;99.90;;;;;;5070919;28;20478;-71
2022/06/08 00:50:39;;;;;;;2.67;2.20;;;13.70;99.90;;;;;;5071864;28;20454;-71
2022/06/08 00:53:08;;;;;;;2.43;2.23;;;13.70;99.90;;;;;;5071904;28;21224;-72
2022/06/08 00:55:39;;;;;;;2.60;2.23;;;13.70;99.90;;;;;;5072016;28;20459;-72
2022/06/08 00:58:11;;;;;;;2.53;2.33;;;13.70;99.90;;;;;;5071156;28;20465;-71
2022/06/08 01:00:40;;;;;;;3.00;2.37;;;13.70;99.90;;;;;;5072160;28;20466;-71
2022/06/08 01:03:08;;;;;;;2.77;2.57;;;13.70;99.90;;;;;;5071448;28;20486;-72
2022/06/08 01:05:39;;;;;;;2.37;2.17;;;13.70;99.90;;;;;;5071849;28;20579;-72
2022/06/08 01:08:23;;;;;;;2.70;2.50;;;13.60;99.90;;;;;;5070844;28;21115;-72
2022/06/08 01:10:53;;;;;;;2.50;2.30;;;13.60;99.90;;;;;;5071770;28;20458;-72
2022/06/08 01:13:20;;;;;;;2.90;2.60;;;13.60;99.90;;;;;;5071574;28;20485;-72
2022/06/08 01:15:48;;;;;;;2.20;2.00;;;13.50;99.90;;;;;;5071677;28;20953;-72
2022/06/08 01:18:15;;;;;;;5.60;2.40;;;13.50;99.90;;;;;;5070940;28;20462;-71
2022/06/08 01:20:48;;;;;;;4.53;2.50;;;13.50;99.90;;;;;;5071600;28;20465;-72
2022/06/08 01:23:16;;;;;;;3.10;2.20;;;13.50;99.90;;;;;;5071350;28;20485;-72
2022/06/08 01:25:55;;;;;;;2.80;2.50;;;13.40;99.90;;;;;;5071302;28;20451;-72
2022/06/08 01:28:31;;;;;;;6.10;2.67;;;13.40;99.90;;;;;;5070952;28;20508;-72
2022/06/08 01:31:03;;;;;;;3.10;2.80;;;13.40;99.90;;;;;;5070110;28;20474;-71
2022/06/08 01:33:44;;;;;;;2.63;2.40;;;13.40;99.90;;;;;;5071428;28;20849;-72
2022/06/08 01:36:26;;;;;;;2.60;2.40;;;13.40;99.90;;;;;;5071966;28;20469;-72
2022/06/08 01:39:02;;;;;;;2.40;2.20;;;13.30;99.90;;;;;;5070613;28;20836;-72
2022/06/08 01:41:58;;;;;;;3.80;2.37;;;13.30;99.90;;;;;;5071187;28;20463;-72
2022/06/08 01:47:42;;;;;;;3.63;2.50;;;13.30;99.90;;;;;;5069628;28;20442;-72
2022/06/08 01:50:18;;;;;;;3.67;2.00;;;13.30;99.90;;;;;;5070643;28;20477;-72
2022/06/08 01:52:57;;;;;;;2.80;2.60;;;13.20;99.90;;;;;;5070867;28;20485;-71
2022/06/08 01:55:33;;;;;;;3.50;2.53;;;13.20;99.90;;;;;;5070903;28;20462;-71
2022/06/08 01:58:05;;;;;;;2.57;2.37;;;13.10;99.90;;;;;;5070501;28;20454;-71
2022/06/08 02:00:36;;;;;;;3.30;2.33;;;13.10;99.90;;;;;;5070814;28;20459;-71
2022/06/08 02:03:09;;;;;;;3.00;2.80;;;13.10;99.90;;;;;;5070810;28;20479;-72
2022/06/08 02:05:43;;;;;;;3.17;2.70;;;13.00;99.90;;;;;;5070609;28;20973;-72
2022/06/08 02:08:18;;;;;;;3.37;3.03;;;13.00;99.90;;;;;;5070143;28;20514;-71
2022/06/08 02:10:53;;;;;;;3.07;2.50;;;13.00;99.90;;;;;;5070695;28;20835;-71
2022/06/08 02:13:25;;;;;;;2.57;2.37;;;12.90;99.90;;;;;;5070569;28;20482;-71
2022/06/08 02:15:57;;;;;;;3.60;2.60;;;12.90;99.90;;;;;;5070613;28;20953;-71
2022/06/08 02:18:30;;;;;;;3.60;2.97;;;12.90;99.90;;;;;;5069926;28;20950;-72
2022/06/08 02:21:01;;;;;;;2.80;2.50;;;12.80;99.90;;;;;;5070794;28;20459;-72
2022/06/08 02:23:31;;;;;;;4.53;2.83;;;12.80;99.90;;;;;;5070145;28;20489;-72
2022/06/08 02:26:04;;;;;;;2.77;2.57;;;12.90;99.90;;;;;;5070592;28;20459;-71
2022/06/08 02:28:35;;;;;;;3.97;2.90;;;12.90;99.90;;;;;;5069738;28;21012;-72
2022/06/08 02:31:10;;;;;;;2.93;2.67;;;12.90;99.90;;;;;;5070496;28;20978;-72
2022/06/08 02:36:28;;;;;;;5.00;2.90;;;12.80;99.90;;;;;;5070525;28;20450;-72
2022/06/08 02:38:59;;;;;;;3.50;2.93;;;12.80;99.90;;;;;;5069636;28;20466;-72
2022/06/08 02:41:29;;;;;;;3.87;3.00;;;12.70;99.90;;;;;;5070448;28;20843;-72
2022/06/08 02:43:59;;;;;;;2.90;2.70;;;12.70;99.90;;;;;;5074439;28;20486;-72
2022/06/08 02:46:35;;;;;;;3.37;2.47;;;12.70;99.90;;;;;;5074417;28;20840;-72
2022/06/08 02:49:05;;;;;;;5.23;3.10;;;12.70;99.90;;;;;;5073654;28;20482;-72
2022/06/08 02:51:32;;;;;;;2.70;2.50;;;12.70;99.90;;;;;;5074340;28;20458;-71
2022/06/08 02:54:02;;;;;;;5.40;3.00;;;12.60;99.90;;;;;;5074253;28;20482;-71
2022/06/08 02:56:43;;;;;;;3.10;2.60;;;12.60;99.90;;;;;;5074310;28;20458;-72
2022/06/08 02:59:15;;;;;;;4.37;2.87;;;12.60;99.90;;;;;;5073798;28;20458;-71
2022/06/08 03:01:46;;;;;;;2.80;2.60;;;12.60;99.90;;;;;;5074097;28;20463;-71
2022/06/08 03:04:19;;;;;;;3.50;2.40;;;12.60;99.90;;;;;;5074260;28;21004;-72
2022/06/08 03:06:51;;;;;;;3.63;2.70;;;12.60;99.90;;;;;;5074248;28;20459;-72
2022/06/08 03:09:19;;;;;;;5.30;2.87;;;12.70;99.90;;;;;;5073607;28;20539;-72
2022/06/08 03:11:52;;;;;;;4.00;2.80;;;12.70;99.90;;;;;;5074112;28;20458;-72
2022/06/08 03:14:19;;;;;;;4.00;2.50;;;12.70;99.90;;;;;;5073953;28;20482;-71
2022/06/08 03:16:56;;;;;;;3.13;2.60;;;12.60;99.90;;;;;;5073935;28;20462;-71
2022/06/08 03:19:24;;;;;;;2.83;2.57;;;12.70;99.90;;;;;;5073344;28;20458;-71
2022/06/08 03:21:51;;;;;;;4.90;2.50;;;12.60;99.90;;;;;;5073673;28;20458;-71
2022/06/08 03:24:18;;;;;;;4.53;2.50;;;12.60;99.90;;;;;;5073588;28;20844;-71
2022/06/08 03:26:51;;;;;;;5.95;2.85;;;12.60;99.90;;;;;;5073646;28;20469;-71
2022/06/08 03:29:18;;;;;;;3.92;2.75;;;12.60;99.90;;;;;;5073207;28;20225;-71
2022/06/08 03:31:45;;;;;;;4.40;2.60;;;12.60;99.90;;;;;;5073367;28;20204;-71
2022/06/08 03:34:12;;;;;;;3.10;2.60;;;12.50;99.90;;;;;;5062884;28;20849;-71
2022/06/08 03:36:39;;;;;;;5.73;3.20;;;12.60;99.90;;;;;;5058092;28;20465;-71
2022/06/08 03:39:07;;;;;;;4.43;2.00;;;12.60;99.90;;;;;;5062565;28;20453;-72
2022/06/08 03:41:34;;;;;;;3.10;2.80;;;12.50;99.90;;;;;;5062179;28;20466;-71
2022/06/08 03:44:03;;;;;;;4.50;2.97;;;12.50;99.90;;;;;;5060866;28;20485;-71
2022/06/08 03:46:34;;;;;;;3.13;2.83;;;12.60;99.90;;;;;;5051897;28;20455;-72
2022/06/08 03:49:01;;;;;;;4.30;3.00;;;12.50;99.90;;;;;;5051373;28;20482;-71
2022/06/08 03:51:29;;;;;;;3.43;2.70;;;12.60;99.90;;;;;;5062698;28;20450;-72
2022/06/08 03:54:00;;;;;;;2.97;2.57;;;12.60;99.90;;;;;;5058664;28;20860;-72
2022/06/08 03:56:30;;;;;;;4.17;2.70;;;12.50;99.90;;;;;;5057898;28;20460;-72
2022/06/08 03:58:58;;;;;;;3.33;2.43;;;12.60;99.90;;;;;;5057768;28;20454;-73
2022/06/08 04:01:26;;;;;;;3.88;2.50;;;12.60;99.90;;;;;;5069243;28;20460;-73
2022/06/08 04:03:53;;;;;;;3.97;2.70;;;12.60;99.90;;;;;;5060648;28;20231;-73
2022/06/08 04:06:20;;;;;;;3.88;2.28;;;12.60;99.90;;;;;;5062354;28;20218;-73
2022/06/08 04:08:47;;;;;;;3.63;2.35;;;12.60;99.90;;;;;;5060890;28;20209;-73
2022/06/08 04:11:14;;;;;;;3.77;2.43;;;12.60;99.90;;;;;;5060668;28;20203;-73
2022/06/08 04:13:41;;;;;;;2.92;2.70;;;12.60;99.90;;;;;;5054574;28;21224;-73
2022/06/08 04:16:08;;;;;;;2.30;2.10;;;12.70;99.90;;;;;;5061297;28;20197;-73
2022/06/08 04:18:36;;;;;;;4.80;2.80;;;12.70;99.90;;;;;;5059572;28;20458;-73
2022/06/08 04:21:06;;;;;;;4.20;3.07;;;12.70;99.90;;;;;;5051034;28;20460;-72
2022/06/08 04:23:34;;;;;;;2.90;2.50;;;12.80;99.90;;;;;;5051155;28;20481;-73
2022/06/08 04:26:01;;;;;;;3.03;2.27;;;12.70;99.90;;;;;;5051064;28;20205;-74
2022/06/08 04:28:29;;;;;;;3.60;2.40;;;12.70;99.90;;;;;;5050616;28;21275;-73
2022/06/08 04:30:56;;;;;;;4.80;2.33;;;12.70;99.90;;;;;;5051315;28;20514;-74
2022/06/08 04:33:23;;;;;;;3.65;2.53;;;12.70;99.90;;;;;;5050984;28;20475;-75
2022/06/08 04:35:52;;;;;;;3.58;2.38;;;12.70;99.90;;;;;;5052488;28;20196;-74
2022/06/08 04:38:18;;;;;;;3.80;2.30;;;12.70;99.90;;;;;;5052494;28;20259;-74
2022/06/08 04:40:46;;;;;;;5.03;2.50;;;12.70;99.90;;;;;;5052431;28;20468;-74
2022/06/08 04:43:13;;;;;;;2.63;2.37;;;12.70;99.90;;;;;;5052671;28;20491;-76
2022/06/08 04:45:40;;;;;;;2.63;2.20;;;12.80;99.90;;;;;;5052695;28;20487;-76
2022/06/08 04:48:08;;;;;;;3.70;2.37;;;12.80;99.90;;;;;;5052225;28;20448;-75
2022/06/08 04:50:35;;;;;;;5.20;2.90;;;12.80;99.90;;;;;;5053748;28;20479;-75
2022/06/08 04:53:03;;;;;;;4.55;2.00;;;12.90;99.90;;;;;;5052157;28;20994;-75
2022/06/08 04:55:30;;;;;;;3.45;2.40;;;12.80;99.90;;;;;;5052642;28;20208;-75
2022/06/08 04:57:57;;;;;;;3.88;2.35;;;12.80;99.90;;;;;;5052014;28;20208;-77
2022/06/08 05:00:25;;;;;;;3.30;2.37;;;12.80;99.90;;;;;;5052133;28;20220;-76
2022/06/08 05:02:53;;;;;;;4.87;2.20;;;12.70;99.90;;;;;;5052142;28;20493;-75
2022/06/08 05:05:22;;;;;;;2.45;2.25;;;12.70;99.90;;;;;;5052200;28;20486;-75
2022/06/08 05:07:50;;;;;;;5.47;2.90;;;12.70;99.90;;;;;;5051962;28;20209;-76
2022/06/08 05:10:20;;;;;;;4.07;2.60;;;12.80;99.90;;;;;;5051522;28;20715;-75
2022/06/08 05:12:47;;;;;;;2.97;2.40;;;12.80;99.90;;;;;;5051807;28;21021;-76
2022/06/08 05:15:17;;;;;;;3.43;2.47;;;12.90;99.90;;;;;;5051973;28;20463;-75
2022/06/08 05:17:44;;;;;;;5.80;2.73;;;13.00;99.90;;;;;;5051901;28;20460;-76
2022/06/08 05:20:12;;;;;;;2.13;1.93;;;13.00;99.90;;;;;;5051141;28;20455;-76
2022/06/08 05:22:39;;;;;;;4.17;2.40;;;13.10;99.90;;;;;;5051641;28;20467;-74
2022/06/08 05:25:09;;;;;;;5.60;2.43;;;13.10;99.90;;;;;;5051524;28;20463;-72
2022/06/08 05:27:38;;;;;;;4.43;2.50;;;13.10;99.90;;;;;;5051837;28;20951;-76
2022/06/08 05:30:06;;;;;;;6.40;2.77;;;13.20;99.90;;;;;;5050872;28;20649;-72
2022/06/08 05:32:32;;;;;;;4.87;2.50;;;13.10;99.90;;;;;;5051559;28;21154;-73
2022/06/08 05:34:59;;;;;;;3.70;2.50;;;13.20;99.90;;;;;;5051526;28;20465;-72
2022/06/08 05:37:26;;;;;;;5.63;2.37;;;13.30;99.90;;;;;;5051507;28;20463;-72
2022/06/08 05:39:53;;;;;;;2.63;2.23;;;13.30;99.90;;;;;;5050533;28;20455;-75
2022/06/08 05:42:19;;;;;;;6.80;2.60;;;13.40;99.90;;;;;;5051716;28;20843;-75
2022/06/08 05:44:48;;;;;;;4.30;2.20;;;13.40;99.90;;;;;;5050920;28;20517;-75
2022/06/08 05:47:16;;;;;;;5.10;2.70;;;13.40;99.90;;;;;;5051098;28;20505;-77
2022/06/08 05:49:43;;;;;;;2.70;2.17;;;13.40;99.90;;;;;;5050944;28;20487;-74
2022/06/08 05:52:10;;;;;;;3.10;2.30;;;13.40;99.90;;;;;;5051293;28;20463;-75
2022/06/08 05:54:37;;;;;;;5.83;2.77;;;13.50;99.90;;;;;;5051334;28;20480;-75
2022/06/08 05:57:05;;;;;;;4.70;2.20;;;13.50;99.90;;;;;;5052147;28;20466;-78
2022/06/08 05:59:31;;;;;;;4.40;2.50;;;13.50;99.90;;;;;;5052500;28;20478;-74
2022/06/08 06:01:59;;;;;;;3.00;2.13;;;13.50;99.90;;;;;;5050748;28;20471;-76
2022/06/08 06:04:26;;;;;;;5.00;2.30;;;13.60;99.90;;;;;;5051099;28;20483;-76
2022/06/08 06:06:53;;;;;;;4.53;2.13;;;13.60;99.90;;;;;;5051009;28;20491;-77
2022/06/08 06:09:20;;;;;;;5.10;2.13;;;13.60;99.90;;;;;;5050603;28;20494;-76
2022/06/08 06:11:48;;;;;;;2.57;2.37;;;13.70;99.90;;;;;;5050916;28;20466;-76
2022/06/08 06:14:14;;;;;;;4.10;2.20;;;13.70;99.90;;;;;;5051151;28;20479;-76
2022/06/08 06:16:41;;;;;;;3.40;2.70;;;13.70;99.90;;;;;;5050259;28;20857;-72
2022/06/08 06:19:09;;;;;;;2.90;2.50;;;13.70;99.90;;;;;;5049971;28;20890;-73
2022/06/08 06:21:36;;;;;;;2.37;2.10;;;13.70;99.90;;;;;;5050771;28;20467;-72
2022/06/08 06:24:04;;;;;;;3.20;2.30;;;13.80;99.90;;;;;;5050309;28;20546;-72
2022/06/08 06:26:32;;;;;;;3.50;2.40;;;13.90;99.90;;;;;;5050824;28;20520;-72
2022/06/08 06:28:58;;;;;;;7.03;2.70;;;13.90;99.90;;;;;;5049770;28;20963;-75
2022/06/08 06:33:53;;;;;;;3.43;2.53;;;14.00;99.90;;;;;;5047906;28;20471;-74
2022/06/08 06:36:21;;;;;;;5.23;2.50;;;14.00;99.90;;;;;;5050022;28;20458;-73
2022/06/08 06:38:48;;;;;;;5.03;2.60;;;14.00;99.90;;;;;;5049578;28;20466;-72
2022/06/08 06:41:16;;;;;;;4.53;2.40;;;14.10;99.90;;;;;;5050760;28;20451;-73
2022/06/08 06:43:43;;;;;;;7.13;2.33;;;14.10;99.90;;;;;;5049974;28;20482;-73
2022/06/08 06:46:10;;;;;;;2.93;2.30;;;14.20;99.90;;;;;;5049919;28;20834;-73
2022/06/08 06:48:37;;;;;;;5.07;2.00;;;14.30;99.90;;;;;;5049464;28;20835;-75
2022/06/08 06:51:04;;;;;;;5.03;2.20;;;14.40;99.90;;;;;;5049921;28;20903;-74
2022/06/08 06:53:32;;;;;;;3.13;2.37;;;14.50;99.90;;;;;;5049967;28;21013;-69
2022/06/08 06:55:59;;;;;;;2.40;2.10;;;14.50;99.90;;;;;;5050107;28;20464;-69
2022/06/08 06:58:26;;;;;;;2.73;2.00;;;14.60;99.90;;;;;;5049566;28;20459;-73
2022/06/08 07:00:53;;;;;;;3.20;1.97;;;14.60;99.90;;;;;;5049833;28;20455;-70
2022/06/08 07:03:20;;;;;;;5.93;2.23;;;14.60;99.90;;;;;;5050059;28;20917;-71
2022/06/08 07:05:47;;;;;;;3.63;2.20;;;14.60;99.90;;;;;;5049899;28;20491;-71
2022/06/08 07:08:14;;;;;;;2.77;1.93;;;14.70;99.90;;;;;;5049137;28;20915;-71
2022/06/08 07:10:43;;;;;;;5.63;3.27;;;14.70;99.90;;;;;;5049979;28;20479;-73
2022/06/08 07:13:10;;;;;;;2.67;2.40;;;14.80;99.90;;;;;;5048287;28;20896;-72
2022/06/08 07:15:37;;;;;;;6.80;2.43;;;14.80;99.90;;;;;;5045843;28;20463;-73
2022/06/08 07:18:04;;;;;;;2.90;2.60;;;14.90;99.90;;;;;;5048420;28;20821;-73
2022/06/08 07:20:31;;;;;;;6.07;2.20;;;15.00;99.90;;;;;;5049582;28;20487;-74
2022/06/08 07:22:58;;;;;;;3.57;2.20;;;15.10;99.90;;;;;;5047968;28;20506;-73
2022/06/08 07:25:26;;;;;;;6.87;2.40;;;15.10;99.90;;;;;;5036448;28;20471;-72
2022/06/08 07:27:54;;;;;;;3.93;2.33;;;15.20;99.90;;;;;;5029256;28;20464;-75
2022/06/08 07:30:21;;;;;;;5.00;2.50;;;15.30;99.90;;;;;;5031904;28;20487;-74
2022/06/08 07:32:48;;;;;;;3.03;2.23;;;15.30;99.90;;;;;;5032719;28;20521;-71
2022/06/08 07:35:15;;;;;;;4.10;2.47;;;15.30;99.90;;;;;;5031935;28;20464;-70
2022/06/08 07:37:43;;;;;;;2.93;2.23;;;15.40;99.90;;;;;;5031193;28;20464;-71
2022/06/08 07:40:11;;;;;;;5.80;2.47;;;15.40;99.90;;;;;;5032136;28;20955;-72
2022/06/08 07:42:38;;;;;;;2.70;2.30;;;15.50;99.90;;;;;;5032471;28;20464;-72
2022/06/08 07:45:11;;;;;;;4.50;2.40;;;15.60;99.90;;;;;;5030648;28;20464;-71
2022/06/08 07:49:36;;;;;;;3.57;2.53;;;15.70;99.90;;;;;;5032318;28;20522;-71
2022/06/08 07:50:34;;;;;;;2.43;1.80;;;15.90;99.90;;;;;;5032146;28;20575;-70
2022/06/08 07:53:02;;;;;;;3.30;2.20;;;16.10;99.90;;;;;;5031303;28;20483;-71
2022/06/08 07:55:29;;;;;;;5.30;2.10;;;16.20;99.90;;;;;;5032275;28;20495;-74
2022/06/08 07:57:57;;;;;;;2.90;1.73;;;16.30;99.90;;;;;;5031791;28;20468;-72
2022/06/08 08:00:29;;;;;;;2.93;1.93;;;16.40;99.90;;;;;;5031658;28;20452;-73
2022/06/08 08:02:56;;;;;;;2.63;2.00;;;16.40;99.90;;;;;;5032246;28;20484;-75
2022/06/08 08:05:26;;;;;;;5.40;2.17;;;16.40;99.90;;;;;;5032057;28;20466;-74
2022/06/08 08:07:54;;;;;;;3.50;2.00;;;16.40;99.90;;;;;;5032101;28;20467;-74
2022/06/08 08:10:24;;;;;;;6.73;2.33;;;16.50;99.90;;;;;;5031404;28;20490;-73
2022/06/08 08:12:55;;;;;;;7.00;2.23;;;16.60;99.90;;;;;;5031438;28;20484;-73
2022/06/08 08:15:26;;;;;;;5.40;2.00;;;16.70;99.90;;;;;;5032148;28;20469;-70
2022/06/08 08:17:53;;;;;;;2.80;1.93;;;16.90;99.90;;;;;;5031872;28;20467;-72
2022/06/08 08:20:23;;;;;;;2.30;1.87;;;16.90;99.90;;;;;;5031262;28;20460;-73
2022/06/08 08:22:51;;;;;;;3.20;1.63;;;16.90;99.90;;;;;;5031552;28;20553;-72
2022/06/08 08:25:19;;;;;;;3.57;2.20;;;16.90;99.90;;;;;;5038647;28;20455;-72
2022/06/08 08:27:47;;;;;;;5.43;2.30;;;17.00;99.90;;;;;;5051516;28;20474;-69
2022/06/08 08:30:16;;;;;;;3.10;1.80;;;17.20;99.90;;;;;;5050829;28;20570;-74
2022/06/08 08:32:45;;;;;;;5.90;2.03;;;17.40;99.90;;;;;;5051834;28;20487;-73
2022/06/08 08:35:12;;;;;;;4.73;2.10;;;17.60;99.90;;;;;;5050560;28;20463;-70
2022/06/08 08:37:39;;;;;;;4.73;2.07;;;17.80;99.90;;;;;;5051679;28;20460;-70
2022/06/08 08:40:14;;;;;;;4.87;1.90;;;17.90;99.90;;;;;;5049979;28;20463;-70
2022/06/08 08:42:41;;;;;;;3.00;1.60;;;17.90;99.90;;;;;;5051166;28;20459;-73
2022/06/08 08:45:13;;;;;;;3.90;1.83;;;18.00;99.90;;;;;;5029212;28;20460;-73
2022/06/08 08:47:57;;;;;;;3.47;1.90;;;18.00;99.90;;;;;;5011205;28;20457;-73
2022/06/08 08:50:27;;;;;;;3.67;1.60;;;18.10;99.90;;;;;;5013522;28;20861;-73
2022/06/08 08:53:03;;;;;;;6.10;1.87;;;18.20;99.90;;;;;;5028814;28;20476;-74
2022/06/08 08:55:39;;;;;;;4.23;2.07;;;18.30;99.90;;;;;;5031327;28;20463;-75
2022/06/08 08:58:13;;;;;;;2.37;1.80;;;18.60;99.90;;;;;;5030432;28;20488;-73
2022/06/08 09:00:42;;;;;;;5.20;2.03;;;18.80;99.90;;;;;;5030779;28;20462;-73
2022/06/08 09:03:33;;;;;;;2.40;1.60;;;19.00;99.90;;;;;;5029548;28;20486;-73
2022/06/08 09:06:07;;;;;;;3.60;1.67;;;19.10;99.90;;;;;;5023498;28;20888;-72
2022/06/08 09:08:34;;;;;;;2.33;1.40;;;19.10;99.90;;;;;;5029397;28;20952;-73
2022/06/08 09:11:02;;;;;;;5.20;1.67;;;19.10;99.90;;;;;;5031062;28;20519;-73
2022/06/08 09:13:37;;;;;;;2.50;1.83;;;19.00;99.90;;;;;;5030247;28;20522;-71
2022/06/08 09:16:04;;;;;;;4.30;1.80;;;19.00;99.90;;;;;;5031000;28;20467;-70
2022/06/08 09:18:35;;;;;;;3.40;2.10;;;18.90;99.90;;;;;;5030723;28;20466;-70
2022/06/08 09:21:26;;;;;;;2.53;1.40;;;18.80;99.90;;;;;;5030770;28;20460;-72
2022/06/08 09:23:55;;;;;;;3.83;1.50;;;18.90;99.90;;;;;;5030122;28;20489;-73
2022/06/08 09:26:33;;;;;;;3.70;1.77;;;19.10;99.90;;;;;;5033597;28;20863;-73
2022/06/08 09:29:08;;;;;;;2.10;1.50;;;19.20;99.90;;;;;;5049496;28;20463;-73
2022/06/08 09:31:37;;;;;;;3.37;1.60;;;19.40;99.90;;;;;;5050124;28;21029;-69
2022/06/08 09:34:15;;;;;;;3.10;1.60;;;19.40;99.90;;;;;;5050029;28;20537;-69
2022/06/08 09:36:43;;;;;;;2.40;1.67;;;19.50;99.90;;;;;;5049731;28;20463;-70
2022/06/08 09:39:12;;;;;;;2.90;1.87;;;19.60;99.90;;;;;;5049497;28;20506;-69
2022/06/08 09:41:48;;;;;;;2.90;1.53;;;19.50;99.90;;;;;;5050073;28;20463;-69
2022/06/08 09:44:23;;;;;;;3.00;1.53;;;19.50;99.90;;;;;;5049482;28;20482;-69
2022/06/08 09:52:55;;;;;;;3.13;1.50;;;19.90;99.90;;;;;;5049285;28;20443;-72
2022/06/08 09:55:29;;;;;;;3.03;1.57;;;20.00;99.90;;;;;;5049978;28;20862;-72
2022/06/08 09:58:09;;;;;;;2.20;1.60;;;20.20;99.90;;;;;;5049471;28;20459;-68
2022/06/08 10:00:41;;;;;;;1.60;1.40;;;20.40;99.90;;;;;;5049830;28;20977;-67
2022/06/08 10:03:38;;;;;;;1.27;1.17;;;20.40;99.90;;;;;;5049538;28;20491;-69
2022/06/08 10:06:18;;;;;;;2.07;1.30;;;20.30;99.90;;;;;;5047248;28;20470;-69
2022/06/08 10:08:59;;;;;;;3.50;1.47;;;20.30;99.90;;;;;;5049424;28;20463;-68
2022/06/08 10:11:36;;;;;;;2.10;1.43;;;20.30;99.90;;;;;;5049635;28;20491;-69
2022/06/08 10:14:15;;;;;;;2.07;1.30;;;20.40;99.90;;;;;;5048315;28;20507;-69
2022/06/08 10:16:47;;;;;;;2.13;1.30;;;20.20;99.90;;;;;;5049777;28;20816;-69
2022/06/08 10:19:20;;;;;;;1.50;1.20;;;20.10;99.90;;;;;;5048891;28;20455;-68
2022/06/08 10:21:50;;;;;;;2.47;1.60;;;20.00;99.90;;;;;;5049520;28;20465;-67
2022/06/08 10:24:21;;;;;;;3.23;1.87;;;20.00;99.90;;;;;;5049127;28;20779;-69
2022/06/08 10:26:52;;;;;;;2.30;1.30;;;20.20;99.90;;;;;;5048776;28;20973;-69
2022/06/08 10:29:25;;;;;;;3.27;1.70;;;20.40;99.90;;;;;;5049192;28;20463;-69
2022/06/08 10:31:57;;;;;;;3.13;1.40;;;20.60;99.90;;;;;;5049012;28;20491;-69
2022/06/08 10:34:27;;;;;;;3.53;1.37;;;21.00;99.90;;;;;;5048956;28;20486;-69
2022/06/08 10:36:58;;;;;;;1.80;1.17;;;21.20;99.90;;;;;;5048625;28;20486;-69
2022/06/08 10:39:27;;;;;;;3.17;1.57;;;21.30;99.90;;;;;;5048893;28;20487;-68
2022/06/08 10:42:43;;;;;;;2.67;1.40;;;21.30;99.90;;;;;;5048733;28;20692;-69
2022/06/08 10:45:47;;;;;;;2.67;1.50;;;21.50;99.90;;;;;;5007001;28;20471;-69
2022/06/08 10:48:55;;;;;;;2.60;1.50;;;21.60;99.90;;;;;;5046421;28;21167;-68
2022/06/08 10:51:41;;;;;;;2.63;1.60;;;21.50;98.50;;;;;;5028771;28;20480;-69
2022/06/08 10:57:43;;;;;;;2.57;1.47;;;21.20;99.00;;;;;;5029424;28;20448;-69
2022/06/08 11:00:58;;;;;;;2.33;1.50;;;21.30;99.90;;;;;;5028722;28;20479;-69
2022/06/08 11:03:48;;;;;;;1.40;1.30;;;21.40;97.40;;;;;;4931532;29;20509;-69
2022/06/08 11:06:48;;;;;;;1.30;1.20;;;21.50;99.10;;;;;;5033282;28;20495;-70
2022/06/08 11:09:19;;;;;;;1.80;1.43;;;21.70;98.80;;;;;;5032359;28;20467;-72
2022/06/08 11:11:49;;;;;;;2.70;1.50;;;21.90;98.10;;;;;;5033568;28;20492;-72
2022/06/08 11:14:31;;;;;;;2.13;1.63;;;21.90;98.30;;;;;;5033419;28;20476;-72
2022/06/08 11:17:03;;;;;;;2.10;1.43;;;21.90;98.80;;;;;;5033416;28;20460;-72
2022/06/08 11:19:32;;;;;;;2.03;1.20;;;22.00;96.90;;;;;;5033560;28;20843;-72
2022/06/08 11:22:03;;;;;;;3.20;1.20;;;22.10;97.50;;;;;;5030721;28;20839;-69
2022/06/08 11:24:35;;;;;;;2.03;1.40;;;22.20;95.50;;;;;;5025440;28;20503;-70
2022/06/08 11:27:30;;;;;;;2.60;1.20;;;22.10;95.70;;;;;;5012819;28;20469;-70
2022/06/08 11:29:58;;;;;;;3.17;1.30;;;21.90;94.70;;;;;;5012410;28;20471;-71
2022/06/08 11:32:42;;;;;;;1.77;1.20;;;21.80;95.40;;;;;;5012443;28;20999;-71
2022/06/08 11:35:40;;;;;;;2.10;1.20;;;21.70;96.20;;;;;;5012739;28;20461;-71
2022/06/08 11:38:18;;;;;;;2.53;1.37;;;22.00;96.60;;;;;;5012678;28;20539;-71
2022/06/08 11:40:45;;;;;;;2.90;1.40;;;22.30;94.50;;;;;;5012715;28;20467;-71
2022/06/08 11:43:30;;;;;;;3.00;1.50;;;22.50;96.30;;;;;;5012464;28;21070;-72
2022/06/08 11:45:58;;;;;;;1.87;1.20;;;22.40;94.50;;;;;;5012379;28;20465;-70
2022/06/08 11:48:27;;;;;;;3.33;1.30;;;22.10;93.70;;;;;;5012008;28;20479;-69
2022/06/08 11:50:56;;;;;;;2.30;1.13;;;21.90;94.10;;;;;;5012511;28;20515;-68
2022/06/08 11:53:28;;;;;;;2.70;1.10;;;21.90;96.20;;;;;;5012604;28;21007;-68
2022/06/08 11:56:04;;;;;;;2.60;1.20;;;21.90;95.80;;;;;;5012215;28;20960;-68
2022/06/08 11:58:35;;;;;;;1.37;1.20;;;22.10;96.60;;;;;;5012211;28;20825;-70
2022/06/08 12:01:08;;;;;;;2.07;1.30;;;22.50;94.90;;;;;;5012691;28;20458;-69
2022/06/08 12:03:41;;;;;;;1.77;1.30;;;22.90;95.00;;;;;;5012694;28;20480;-73
2022/06/08 12:06:18;;;;;;;3.20;1.53;;;23.30;95.90;;;;;;5012184;28;20469;-72
2022/06/08 12:08:47;;;;;;;1.40;1.10;;;23.50;94.60;;;;;;5020292;28;20543;-72
2022/06/08 12:11:18;;;;;;;3.37;1.50;;;23.60;95.30;;;;;;5031698;28;20483;-73
2022/06/08 12:13:58;;;;;;;1.40;1.17;;;23.50;95.20;;;;;;5031991;28;20946;-71
2022/06/08 12:16:30;;;;;;;2.90;1.20;;;23.30;91.90;;;;;;5031285;28;20463;-73
2022/06/08 12:19:01;;;;;;;2.20;1.20;;;22.80;91.50;;;;;;5031600;28;20834;-72
2022/06/08 12:21:33;;;;;;;1.50;1.13;;;22.40;91.90;;;;;;5031809;28;20886;-73
2022/06/08 12:24:07;;;;;;;3.53;2.33;;;22.20;92.40;;;;;;5031465;28;20480;-72
2022/06/08 12:26:41;;;;;;;2.80;1.30;;;22.00;94.00;;;;;;5032509;28;20490;-72
2022/06/08 12:29:25;;;;;;;1.90;1.43;;;22.00;93.80;;;;;;5031838;28;20464;-73
2022/06/08 12:32:16;;;;;;;1.90;1.30;;;22.00;94.90;;;;;;5031674;28;21014;-69
2022/06/08 12:34:46;;;;;;;2.80;1.20;;;22.30;94.60;;;;;;5020399;28;20538;-70
2022/06/08 12:37:38;;;;;;;3.53;1.40;;;22.60;93.90;;;;;;5032073;28;20455;-70
2022/06/08 12:40:25;;;;;;;3.93;1.73;;;22.50;93.40;;;;;;5027659;28;20483;-70
2022/06/08 12:42:55;;;;;;;1.73;1.30;;;22.60;95.00;;;;;;5031658;28;20484;-71
2022/06/08 12:45:33;;;;;;;4.03;1.20;;;22.60;95.10;;;;;;5030916;28;20464;-70
2022/06/08 12:48:01;;;;;;;1.97;1.40;;;22.50;93.50;;;;;;5030372;28;20456;-70
2022/06/08 12:50:30;;;;;;;2.43;1.40;;;22.40;94.70;;;;;;5031321;28;20490;-70
2022/06/08 12:53:02;;;;;;;5.23;1.40;;;22.40;94.20;;;;;;5031305;28;20904;-70
2022/06/08 12:55:29;;;;;;;2.33;1.40;;;22.30;94.40;;;;;;5031139;28;20463;-73
2022/06/08 12:57:56;;;;;;;3.13;1.50;;;22.40;94.00;;;;;;5030526;28;20963;-73
2022/06/08 13:00:26;;;;;;;2.27;1.20;;;22.60;95.50;;;;;;5030871;28;20463;-70
2022/06/08 13:02:57;;;;;;;2.07;1.37;;;22.70;94.80;;;;;;5030979;28;20841;-70
2022/06/08 13:05:27;;;;;;;1.50;1.23;;;22.70;95.10;;;;;;5031182;28;20465;-70
2022/06/08 13:07:55;;;;;;;1.70;1.40;;;22.50;93.20;;;;;;5031073;28;20498;-68
2022/06/08 13:10:22;;;;;;;5.20;1.50;;;22.30;93.80;;;;;;5030025;28;20464;-72
2022/06/08 13:12:54;;;;;;;1.30;1.20;;;22.10;93.40;;;;;;5030814;28;20520;-74
2022/06/08 13:15:24;;;;;;;2.20;1.37;;;22.00;94.30;;;;;;5030984;28;20755;-73
2022/06/08 13:17:51;;;;;;;2.37;1.60;;;22.00;94.80;;;;;;5030547;28;20818;-69
2022/06/08 13:20:29;;;;;;;1.80;1.30;;;22.00;93.90;;;;;;5029956;28;20843;-69
2022/06/08 13:22:56;;;;;;;2.90;1.30;;;21.90;93.70;;;;;;5029929;28;20869;-68
2022/06/08 13:25:25;;;;;;;2.00;1.10;;;21.90;95.00;;;;;;5030726;28;20464;-72
2022/06/08 13:27:53;;;;;;;1.97;1.13;;;21.90;95.20;;;;;;5029813;28;20829;-72